createdAt,value
2019-03-18T00:03:20.454Z,8.90
2019-03-18T00:08:24.358Z,6.00
2019-03-18T00:13:31.650Z,8.33
2019-03-18T00:18:36.467Z,5.00
2019-03-18T00:23:41.589Z,10.50
2019-03-18T00:28:50.567Z,5.80
2019-03-18T00:33:54.638Z,6.17
2019-03-18T00:38:58.717Z,3.67
2019-03-18T00:44:03.255Z,4.00
2019-03-18T00:49:06.947Z,5.00
2019-03-18T00:54:10.628Z,4.00
2019-03-18T00:59:17.999Z,5.00
2019-03-18T01:04:25.955Z,4.00
2019-03-18T01:09:29.816Z,4.00
2019-03-18T01:14:33.196Z,6.00
2019-03-18T01:19:36.432Z,5.33
2019-03-18T01:24:42.851Z,4.60
2019-03-18T01:29:46.872Z,5.00
2019-03-18T01:34:51.326Z,4.00
2019-03-18T01:39:55.430Z,7.00
2019-03-18T01:44:58.943Z,7.33
2019-03-18T01:50:02.550Z,7.00
2019-03-18T01:55:09.242Z,4.80
2019-03-18T02:00:16.008Z,4.20
2019-03-18T02:05:20.895Z,5.00
2019-03-18T02:10:27.685Z,7.40
2019-03-18T02:15:31.364Z,7.00
2019-03-18T02:20:36.187Z,8.83
2019-03-18T02:25:40.808Z,10.17
2019-03-18T02:30:46.101Z,14.29
2019-03-18T02:35:53.267Z,22.89
2019-03-18T02:40:57.560Z,8.00
2019-03-18T02:46:10.211Z,7.00
2019-03-18T02:51:08.689Z,8.40
2019-03-18T02:56:13.465Z,7.33
2019-03-18T03:01:20.704Z,7.33
2019-03-18T03:06:28.669Z,7.20
2019-03-18T03:11:34.472Z,6.33
2019-03-18T03:16:40.231Z,12.14
2019-03-18T03:21:46.577Z,13.29
2019-03-18T03:26:52.992Z,12.00
2019-03-18T03:31:59.131Z,14.43
2019-03-18T03:37:02.760Z,18.00
2019-03-18T03:42:07.964Z,14.71
2019-03-18T03:47:14.283Z,16.71
2019-03-18T03:52:18.325Z,11.67
2019-03-18T03:57:22.891Z,8.00
2019-03-18T04:02:27.804Z,9.17
2019-03-18T04:07:31.575Z,9.33
2019-03-18T04:12:35.323Z,9.83
2019-03-18T04:17:41.638Z,14.29
2019-03-18T04:22:47.343Z,13.00
2019-03-18T04:27:53.643Z,16.00
2019-03-18T04:32:59.029Z,22.71
2019-03-18T04:38:05.426Z,16.29
2019-03-18T04:43:08.899Z,16.00
2019-03-18T04:48:17.758Z,16.00
2019-03-18T04:53:24.038Z,13.00
2019-03-18T04:58:30.323Z,13.00
2019-03-18T05:03:36.697Z,13.00
2019-03-18T05:08:39.643Z,16.67
2019-03-18T05:13:42.625Z,19.00
2019-03-18T05:18:48.139Z,14.00
2019-03-18T05:23:53.339Z,16.29
2019-03-18T05:28:56.856Z,29.50
2019-03-18T05:34:00.474Z,26.00
2019-03-18T05:39:04.874Z,19.00
2019-03-18T05:44:09.897Z,17.71
2019-03-18T05:49:13.419Z,17.50
2019-03-18T05:54:22.631Z,27.89
2019-03-18T05:59:27.135Z,13.00
2019-03-18T06:04:30.857Z,25.00
2019-03-18T06:09:34.907Z,14.17
2019-03-18T06:14:43.710Z,15.45
2019-03-18T06:19:52.127Z,14.29
2019-03-18T06:24:55.559Z,9.40
2019-03-18T06:30:04.645Z,20.50
2019-03-18T06:35:10.915Z,13.00
2019-03-18T06:40:15.920Z,20.29
2019-03-18T06:45:19.143Z,24.00
2019-03-18T06:50:25.653Z,13.29
2019-03-18T06:55:31.266Z,15.29
2019-03-18T07:00:36.212Z,11.50
2019-03-18T07:05:42.039Z,15.14
2019-03-18T07:10:48.231Z,13.57
2019-03-18T07:15:52.868Z,14.67
2019-03-18T07:20:58.928Z,36.25
2019-03-18T07:26:02.391Z,27.25
2019-03-18T07:31:08.354Z,24.29
2019-03-18T07:36:17.116Z,15.91
2019-03-18T07:41:21.539Z,14.43
2019-03-18T07:46:26.907Z,28.71
2019-03-18T07:51:36.368Z,14.91
2019-03-18T07:56:40.151Z,13.67
2019-03-18T08:01:47.348Z,23.75
2019-03-18T08:06:53.321Z,34.00
2019-03-18T08:11:59.840Z,15.50
2019-03-18T08:17:07.417Z,18.62
2019-03-18T08:22:16.334Z,12.00
2019-03-18T08:27:21.495Z,20.00
2019-03-18T08:32:28.064Z,12.00
2019-03-18T08:37:32.637Z,24.00
2019-03-18T08:42:38.188Z,14.50
2019-03-18T08:47:43.594Z,23.57
2019-03-18T08:52:52.573Z,17.33
2019-03-18T08:57:58.603Z,15.86
2019-03-18T09:03:02.853Z,11.60
2019-03-18T09:08:07.915Z,15.75
2019-03-18T09:13:14.158Z,16.14
2019-03-18T09:18:22.855Z,17.87
2019-03-18T09:23:27.793Z,20.67
2019-03-18T09:28:33.953Z,15.86
2019-03-18T09:33:42.353Z,10.43
2019-03-18T09:38:49.504Z,11.71
2019-03-18T09:43:55.855Z,14.17
2019-03-18T09:49:02.240Z,14.00
2019-03-18T09:54:05.869Z,8.40
2019-03-18T09:59:11.879Z,11.71
2019-03-18T10:04:16.556Z,7.80
2019-03-18T10:09:20.900Z,9.00
2019-03-18T10:14:27.402Z,15.86
2019-03-18T10:19:33.651Z,14.67
2019-03-18T10:24:37.396Z,8.60
2019-03-18T10:29:41.033Z,9.00
2019-03-18T10:34:47.374Z,19.57
2019-03-18T10:39:53.664Z,11.00
2019-03-18T10:45:00.939Z,14.00
2019-03-18T10:50:05.666Z,23.50
2019-03-18T10:55:11.829Z,28.50
2019-03-18T11:00:17.188Z,11.33
2019-03-18T11:05:21.923Z,11.33
2019-03-18T11:10:29.925Z,14.71
2019-03-18T11:15:34.423Z,18.00
2019-03-18T11:20:38.078Z,10.33
2019-03-18T11:25:41.962Z,16.00
2019-03-18T11:30:46.656Z,12.29
2019-03-18T11:35:55.607Z,20.62
2019-03-18T11:41:01.111Z,12.00
2019-03-18T11:46:05.731Z,14.00
2019-03-18T11:51:12.213Z,11.67
2019-03-18T11:56:20.272Z,17.43
2019-03-18T12:01:27.259Z,29.00
2019-03-18T12:06:31.820Z,22.33
2019-03-18T12:11:38.007Z,13.86
2019-03-18T12:16:41.498Z,20.50
2019-03-18T12:21:50.199Z,25.50
2019-03-18T12:26:57.431Z,14.50
2019-03-18T12:32:07.187Z,20.42
2019-03-18T12:37:12.620Z,14.33
2019-03-18T12:42:16.097Z,31.50
2019-03-18T12:47:19.073Z,20.00
2019-03-18T12:52:23.711Z,15.17
2019-03-18T12:57:28.219Z,16.67
2019-03-18T13:02:35.243Z,17.00
2019-03-18T13:07:42.552Z,12.83
2019-03-18T13:12:47.259Z,16.71
2019-03-18T13:17:53.538Z,16.00
2019-03-18T13:22:57.269Z,11.50
2019-03-18T13:28:04.130Z,20.50
2019-03-18T13:33:10.027Z,16.43
2019-03-18T13:38:16.009Z,15.43
2019-03-18T13:43:20.560Z,12.00
2019-03-18T13:48:24.906Z,10.00
2019-03-18T13:53:29.529Z,9.17
2019-03-18T13:58:32.979Z,13.00
2019-03-18T14:03:38.563Z,27.00
2019-03-18T14:08:45.702Z,11.00
2019-03-18T14:13:48.747Z,12.00
2019-03-18T14:18:53.966Z,21.43
2019-03-18T14:23:59.290Z,15.71
2019-03-18T14:29:03.862Z,15.29
2019-03-18T14:34:08.916Z,16.00
2019-03-18T14:39:13.546Z,16.29
2019-03-18T14:44:21.796Z,19.29
2019-03-18T14:49:25.816Z,17.33
2019-03-18T14:54:30.491Z,14.86
2019-03-18T14:59:35.139Z,14.33
2019-03-18T15:04:42.828Z,18.62
2019-03-18T15:09:47.399Z,10.43
2019-03-18T15:14:51.111Z,14.00
2019-03-18T15:19:57.324Z,11.29
2019-03-18T15:25:06.192Z,25.88
2019-03-18T15:30:12.807Z,12.86
2019-03-18T15:35:18.483Z,25.57
2019-03-18T15:40:28.063Z,13.50
2019-03-18T15:45:33.004Z,15.14
2019-03-18T15:50:36.436Z,16.00
2019-03-18T15:55:41.799Z,16.43
2019-03-18T16:00:45.346Z,32.50
2019-03-18T16:05:50.767Z,24.71
2019-03-18T16:10:53.632Z,18.33
2019-03-18T16:15:57.219Z,19.00
2019-03-18T16:21:05.486Z,13.00
2019-03-18T16:26:13.233Z,19.71
2019-03-18T16:31:20.127Z,21.00
2019-03-18T16:36:24.743Z,14.67
2019-03-18T16:41:30.570Z,40.38
2019-03-18T16:46:40.812Z,39.64
2019-03-18T16:51:47.765Z,15.80
2019-03-18T16:57:01.391Z,20.44
2019-03-18T17:02:06.236Z,16.00
2019-03-18T17:07:16.045Z,50.50
2019-03-18T17:12:22.955Z,15.71
2019-03-18T17:17:29.385Z,15.00
2019-03-18T17:22:48.155Z,16.00
2019-03-18T17:27:51.523Z,35.00
2019-03-18T17:38:15.764Z,22.59
2019-03-18T17:43:21.770Z,25.33
2019-03-18T17:48:33.729Z,21.37
2019-03-18T17:53:47.203Z,25.19
2019-03-18T17:58:53.722Z,31.62
2019-03-18T18:03:58.959Z,26.71
2019-03-18T18:09:05.476Z,30.71
2019-03-18T18:14:09.413Z,23.67
2019-03-18T18:19:13.874Z,31.50
2019-03-18T18:24:17.683Z,33.00
2019-03-18T18:29:23.219Z,26.71
2019-03-18T18:34:27.491Z,35.50
2019-03-18T18:39:36.343Z,34.50
2019-03-18T18:44:40.156Z,40.25
2019-03-18T18:49:43.874Z,32.00
2019-03-18T18:54:49.610Z,34.75
2019-03-18T18:59:54.431Z,47.00
2019-03-18T19:04:58.760Z,26.50
2019-03-18T19:10:05.582Z,40.75
2019-03-18T19:15:12.112Z,37.00
2019-03-18T19:20:20.107Z,41.25
2019-03-18T19:25:31.825Z,30.20
2019-03-18T19:30:40.602Z,45.17
2019-03-18T19:35:48.878Z,34.75
2019-03-18T19:40:58.867Z,33.44
2019-03-18T19:46:05.153Z,34.88
2019-03-18T19:51:17.669Z,31.46
2019-03-18T19:56:21.327Z,36.00
2019-03-18T20:01:28.377Z,32.75
2019-03-18T20:07:26.510Z,41.50
2019-03-18T20:14:08.055Z,40.50
2019-03-18T20:19:40.686Z,58.10
2019-03-18T20:25:20.856Z,37.83
2019-03-18T20:30:57.895Z,41.00
2019-03-18T20:36:19.607Z,42.21
2019-03-18T20:41:24.021Z,43.33
2019-03-18T20:46:42.170Z,46.44
2019-03-18T20:51:47.513Z,45.71
2019-03-18T20:56:51.950Z,44.00
2019-03-18T21:01:55.683Z,58.67
2019-03-18T21:07:03.550Z,51.33
2019-03-18T21:12:15.490Z,52.00
2019-03-18T21:17:22.567Z,43.20
2019-03-18T21:23:13.104Z,46.84
2019-03-18T21:28:18.730Z,47.00
2019-03-18T21:33:27.928Z,54.75
2019-03-18T21:38:37.346Z,48.00
2019-03-18T21:43:44.312Z,54.50
2019-03-18T21:48:47.913Z,45.00
2019-03-18T21:53:52.071Z,47.80
2019-03-18T21:59:00.352Z,54.88
2019-03-18T22:04:07.506Z,53.87
2019-03-18T22:09:11.543Z,41.67
2019-03-18T22:14:21.980Z,48.67
2019-03-18T22:19:25.943Z,45.00
2019-03-18T22:24:29.247Z,50.00
2019-03-18T22:29:34.508Z,55.00
2019-03-18T22:34:41.700Z,44.25
2019-03-18T22:39:51.412Z,41.00
2019-03-18T22:44:54.643Z,39.00
2019-03-18T22:49:58.119Z,53.00
2019-03-18T22:55:03.002Z,36.33
2019-03-18T23:00:22.245Z,46.25
2019-03-18T23:05:34.811Z,43.90
2019-03-18T23:10:42.491Z,45.22
2019-03-18T23:15:50.354Z,29.80
2019-03-18T23:20:56.402Z,34.75
2019-03-18T23:26:06.408Z,55.20
2019-03-18T23:31:17.096Z,30.90
2019-03-18T23:36:26.870Z,30.33
2019-03-18T23:41:31.520Z,34.50
2019-03-18T23:46:37.656Z,41.00
2019-03-18T23:51:46.685Z,40.67
2019-03-18T23:56:53.948Z,47.00
